Detall de PIREP

Printer-friendly versionPDF version

[2010/08/28 17:28:00]
Flight IATA:CT0001
Pilot Number:042
Company ICAO:CAT
Aircraft Type:B738/F
PAX:100
Departing Airport: LERS
Destination Airport: LEMH
Alternate Airport:LEPA
Online: VATSIM
Route:BCN H70 SARGO
Flight Level:FL220
No Slew and time accel
No pause
Crash detect
Detect pilot in Cockpit between each 30 and 45 minutes
17:28 Zero fuel Weight: 118700 Lbs, Fuel Weight: 46029 Lbs
17:28 VATSIM:LERS 281700Z 22014KT 160V250 CAVOK 27/15 Q1015
17:28 VATSIM:LEMH 281700Z 02021KT 9999 FEW030 25/15 Q1015
17:28 VOICE CATALONIAN
17:40 Parking Brakes off
17:48 Take-off
17:48 Take off Weight: 163921 Lbs
17:48 Wind: 212 @ 013 Knots Heading: 245
17:48 POS N41 08 37 E001 09 15
17:48 Gear Up: 172 Knots
17:48 Flaps:5 at 172 Knots
17:48 Flaps:4 at 172 Knots
17:49 Flaps:3 at 169 Knots
17:50 Flaps:2 at 180 Knots
17:50 Flaps:1 at 206 Knots
17:51 Flaps:0 at 219 Knots
18:02 TOC
18:02 Fuel Weight: 42187 Lb
18:03 Wind:285@039 Knots Heading: 119 Ground Speed: 492 Knots Altitude 22070 ft
18:15 TOD
18:15 Fuel Weight: 40790 Lb
18:18 Wind:301@025 Knots Heading: 120 Ground Speed: 355 Knots Altitude 17998 ft
18:23 Flaps:1 at 216 Knots
18:25 Flaps:2 at 199 Knots
18:31 Flaps:3 at 190 Knots
18:33 Wind:011@015 Knots Heading: 110 Ground Speed: 196 Knots Altitude 2992 ft
18:33 Flaps:4 at 180 Knots
18:33 Gear Down: 180 Knots
18:33 Flaps:5 at 179 Knots
18:34 Flaps:6 at 160 Knots
18:34 Flaps:7 at 161 Knots
18:38 TouchDown:Rate -64 ft/min Speed: 155 Knots
18:38 VATSIM:LEMH 281800Z 01015KT CAVOK 24/16 Q1016
18:38 Land
18:38 Wind:011@015 Knots
18:38 Heading: 010
18:38 Flight Duration: 00:50
18:38 Landing Weight: 157842 Lbs
18:38 POS N39 51 51 E004 13 08
18:43 Parking brakes on
18:43 Block to Block Duration: 01:03
18:43 Final Fuel: 38683 Lbls
18:43 Spent Fuel: 7345 Lbls
18:43 Flight Length: 262 NM
18:43 TOD Land Length: 92 NM

Exportar CSV

Powered by Drupal - Modified by Danger4k